TKJ9XM LTAN-LTFJ
Flight info
| Callsign | TKJ9XM |
|---|---|
| Flight time | 0h 50m |
| Altitude | 36000 |
| Route | HISAR UB545 OSGED UL610 ETAMP |
| Aircraft | B38M/M-SDE1FGHILORVWXY/HB1 |
Departure
| Time | 2026-05-06 01:14 |
|---|---|
| Airport | Konya Airport (LTAN) |
Arrival
| Time | 2026-05-06 02:05 |
|---|---|
| Airport | Istanbul Sabiha Gökçen International Airport (LTFJ) |
| Time | Latitude | Longitude | Altitude | Speed | Heading |
|---|---|---|---|---|---|
| 2026-05-06 00:42 | 37.98508 | 32.57529 | 3394 ft | 0 kts | 105° |
| 2026-05-06 01:05 | 37.98512 | 32.57502 | 3394 ft | 4 kts | 91° |
| 2026-05-06 01:06 | 37.98506 | 32.57480 | 3394 ft | 4 kts | 18° |
| 2026-05-06 01:06 | 37.98491 | 32.57474 | 3394 ft | 0 kts | 16° |
| 2026-05-06 01:09 | 37.98492 | 32.57475 | 3394 ft | 1 kts | 16° |
| 2026-05-06 01:09 | 37.98497 | 32.57475 | 3394 ft | 2 kts | 359° |
| 2026-05-06 01:10 | 37.98533 | 32.57487 | 3394 ft | 9 kts | 33° |
| 2026-05-06 01:10 | 37.98532 | 32.57536 | 3394 ft | 5 kts | 177° |
| 2026-05-06 01:10 | 37.98506 | 32.57513 | 3394 ft | 6 kts | 217° |
| 2026-05-06 01:10 | 37.98447 | 32.57455 | 3394 ft | 14 kts | 230° |
| 2026-05-06 01:11 | 37.98455 | 32.57334 | 3394 ft | 15 kts | 287° |
| 2026-05-06 01:11 | 37.98488 | 32.57203 | 3394 ft | 16 kts | 287° |
| 2026-05-06 01:11 | 37.98523 | 32.57062 | 3394 ft | 17 kts | 287° |
| 2026-05-06 01:11 | 37.98558 | 32.56910 | 3394 ft | 18 kts | 286° |
| 2026-05-06 01:12 | 37.98593 | 32.56758 | 3394 ft | 16 kts | 287° |
| 2026-05-06 01:12 | 37.98627 | 32.56616 | 3394 ft | 17 kts | 287° |
| 2026-05-06 01:12 | 37.98650 | 32.56502 | 3394 ft | 6 kts | 267° |
| 2026-05-06 01:12 | 37.98615 | 32.56465 | 3393 ft | 8 kts | 202° |
| 2026-05-06 01:13 | 37.98501 | 32.56423 | 3393 ft | 41 kts | 196° |
| 2026-05-06 01:13 | 37.98003 | 32.56231 | 3396 ft | 106 kts | 197° |
| 2026-05-06 01:13 | 37.97130 | 32.55902 | 3392 ft | 157 kts | 197° |
| 2026-05-06 01:13 | 37.96005 | 32.55491 | 3706 ft | 175 kts | 198° |
| 2026-05-06 01:14 | 37.93619 | 32.54765 | 5103 ft | 179 kts | 193° |
| 2026-05-06 01:14 | 37.92337 | 32.54388 | 5475 ft | 201 kts | 199° |
| 2026-05-06 01:14 | 37.91150 | 32.53335 | 5790 ft | 223 kts | 239° |
| 2026-05-06 01:15 | 37.90857 | 32.51499 | 6686 ft | 212 kts | 282° |
| 2026-05-06 01:15 | 37.91577 | 32.49877 | 7344 ft | 220 kts | 320° |
| 2026-05-06 01:15 | 37.92989 | 32.49151 | 8027 ft | 224 kts | 359° |
| 2026-05-06 01:15 | 37.94463 | 32.49741 | 8728 ft | 230 kts | 38° |
| 2026-05-06 01:16 | 37.95521 | 32.51313 | 9330 ft | 241 kts | 51° |
| 2026-05-06 01:16 | 37.96844 | 32.52694 | 9710 ft | 258 kts | 18° |
| 2026-05-06 01:16 | 37.98647 | 32.52811 | 10127 ft | 270 kts | 341° |
| 2026-05-06 01:16 | 38.00222 | 32.51516 | 10491 ft | 284 kts | 307° |
| 2026-05-06 01:17 | 38.00999 | 32.49174 | 10841 ft | 301 kts | 276° |
| 2026-05-06 01:17 | 38.01139 | 32.46447 | 11196 ft | 319 kts | 275° |
| 2026-05-06 01:17 | 38.01375 | 32.43563 | 11555 ft | 337 kts | 276° |
| 2026-05-06 01:17 | 38.01666 | 32.40569 | 12175 ft | 343 kts | 277° |
| 2026-05-06 01:18 | 38.01989 | 32.37557 | 13022 ft | 346 kts | 277° |
| 2026-05-06 01:18 | 38.02330 | 32.34505 | 13816 ft | 350 kts | 278° |
| 2026-05-06 01:18 | 38.02678 | 32.31478 | 14515 ft | 354 kts | 278° |
| 2026-05-06 01:18 | 38.03043 | 32.28355 | 15231 ft | 358 kts | 279° |
| 2026-05-06 01:19 | 38.03411 | 32.25220 | 15959 ft | 362 kts | 279° |
| 2026-05-06 01:19 | 38.03784 | 32.22036 | 16654 ft | 367 kts | 279° |
| 2026-05-06 01:19 | 38.04161 | 32.18817 | 17358 ft | 371 kts | 279° |
| 2026-05-06 01:19 | 38.04538 | 32.15597 | 18036 ft | 376 kts | 279° |
| 2026-05-06 01:20 | 38.04923 | 32.12294 | 18665 ft | 380 kts | 279° |
| 2026-05-06 01:20 | 38.05310 | 32.08964 | 19273 ft | 383 kts | 279° |
| 2026-05-06 01:20 | 38.05701 | 32.05604 | 19879 ft | 386 kts | 279° |
| 2026-05-06 01:20 | 38.06092 | 32.02226 | 20472 ft | 389 kts | 279° |
| 2026-05-06 01:21 | 38.06486 | 31.98813 | 21070 ft | 392 kts | 280° |
| 2026-05-06 01:21 | 38.06882 | 31.95374 | 21660 ft | 395 kts | 279° |
| 2026-05-06 01:21 | 38.07279 | 31.91923 | 22233 ft | 398 kts | 279° |
| 2026-05-06 01:21 | 38.07680 | 31.88425 | 22803 ft | 401 kts | 279° |
| 2026-05-06 01:22 | 38.08077 | 31.84948 | 23368 ft | 404 kts | 279° |
| 2026-05-06 01:22 | 38.08482 | 31.81399 | 23879 ft | 407 kts | 280° |
| 2026-05-06 01:22 | 38.08889 | 31.77821 | 24346 ft | 410 kts | 280° |
| 2026-05-06 01:22 | 38.09296 | 31.74228 | 24814 ft | 412 kts | 280° |
| 2026-05-06 01:23 | 38.09706 | 31.70608 | 25279 ft | 415 kts | 280° |
| 2026-05-06 01:23 | 38.10115 | 31.66975 | 25732 ft | 417 kts | 280° |
| 2026-05-06 01:23 | 38.10525 | 31.63331 | 26177 ft | 419 kts | 280° |
| 2026-05-06 01:23 | 38.10937 | 31.59656 | 26618 ft | 422 kts | 280° |
| 2026-05-06 01:24 | 38.11517 | 31.56052 | 27022 ft | 421 kts | 291° |
| 2026-05-06 01:24 | 38.12857 | 31.52766 | 27440 ft | 420 kts | 307° |
| 2026-05-06 01:24 | 38.14712 | 31.49883 | 27823 ft | 422 kts | 311° |
| 2026-05-06 01:24 | 38.16631 | 31.47039 | 28226 ft | 424 kts | 312° |
| 2026-05-06 01:25 | 38.18578 | 31.44213 | 28634 ft | 426 kts | 313° |
| 2026-05-06 01:25 | 38.20552 | 31.41378 | 29035 ft | 428 kts | 313° |
| 2026-05-06 01:25 | 38.22541 | 31.38540 | 29437 ft | 430 kts | 313° |
| 2026-05-06 01:25 | 38.24508 | 31.35740 | 29804 ft | 432 kts | 313° |
| 2026-05-06 01:26 | 38.26518 | 31.32878 | 30155 ft | 435 kts | 313° |
| 2026-05-06 01:26 | 38.28543 | 31.29992 | 30471 ft | 437 kts | 313° |
| 2026-05-06 01:26 | 38.30576 | 31.27094 | 30764 ft | 439 kts | 313° |
| 2026-05-06 01:26 | 38.32608 | 31.24193 | 31163 ft | 438 kts | 313° |
| 2026-05-06 01:27 | 38.34631 | 31.21303 | 31597 ft | 437 kts | 313° |
| 2026-05-06 01:27 | 38.36654 | 31.18411 | 32011 ft | 437 kts | 313° |
| 2026-05-06 01:27 | 38.38678 | 31.15515 | 32420 ft | 436 kts | 313° |
| 2026-05-06 01:27 | 38.40689 | 31.12635 | 32847 ft | 435 kts | 313° |
| 2026-05-06 01:28 | 38.42698 | 31.09754 | 33254 ft | 434 kts | 313° |
| 2026-05-06 01:28 | 38.44674 | 31.06919 | 33668 ft | 433 kts | 313° |
| 2026-05-06 01:28 | 38.46677 | 31.04043 | 34064 ft | 433 kts | 313° |
| 2026-05-06 01:28 | 38.48604 | 31.01087 | 34377 ft | 433 kts | 308° |
| 2026-05-06 01:29 | 38.50395 | 30.97994 | 34695 ft | 433 kts | 308° |
| 2026-05-06 01:29 | 38.52202 | 30.94920 | 35007 ft | 433 kts | 308° |
| 2026-05-06 01:29 | 38.54019 | 30.91850 | 35326 ft | 433 kts | 308° |
| 2026-05-06 01:29 | 38.55842 | 30.88780 | 35638 ft | 433 kts | 308° |
| 2026-05-06 01:30 | 38.57656 | 30.85726 | 35942 ft | 433 kts | 308° |
| 2026-05-06 01:30 | 38.59478 | 30.82657 | 36060 ft | 434 kts | 308° |
| 2026-05-06 01:30 | 38.63113 | 30.76526 | 36059 ft | 431 kts | 308° |
| 2026-05-06 01:31 | 38.66717 | 30.70434 | 36054 ft | 431 kts | 308° |
| 2026-05-06 01:31 | 38.70337 | 30.64306 | 36056 ft | 431 kts | 308° |
| 2026-05-06 01:32 | 38.73418 | 30.57744 | 36084 ft | 432 kts | 297° |
| 2026-05-06 01:32 | 38.75603 | 30.51957 | 36060 ft | 433 kts | 297° |
| 2026-05-06 01:33 | 38.78212 | 30.44992 | 36069 ft | 433 kts | 298° |
| 2026-05-06 01:33 | 38.79801 | 30.41731 | 36052 ft | 430 kts | 311° |
| 2026-05-06 01:33 | 38.81956 | 30.39104 | 36090 ft | 428 kts | 323° |
| 2026-05-06 01:34 | 38.86908 | 30.34834 | 36098 ft | 429 kts | 326° |
| 2026-05-06 01:34 | 38.91824 | 30.30540 | 36083 ft | 429 kts | 326° |
| 2026-05-06 01:35 | 38.96788 | 30.26251 | 36091 ft | 429 kts | 326° |
| 2026-05-06 01:35 | 39.01749 | 30.21966 | 36093 ft | 429 kts | 326° |
| 2026-05-06 01:36 | 39.06704 | 30.17679 | 36099 ft | 429 kts | 326° |
| 2026-05-06 01:36 | 39.11665 | 30.13381 | 35917 ft | 428 kts | 326° |
| 2026-05-06 01:37 | 39.14094 | 30.11273 | 35234 ft | 427 kts | 327° |
| 2026-05-06 01:37 | 39.16551 | 30.09138 | 34634 ft | 425 kts | 327° |
| 2026-05-06 01:37 | 39.19003 | 30.07005 | 33955 ft | 424 kts | 327° |
| 2026-05-06 01:37 | 39.21448 | 30.04876 | 33072 ft | 426 kts | 327° |
| 2026-05-06 01:38 | 39.23910 | 30.02731 | 32226 ft | 427 kts | 327° |
| 2026-05-06 01:38 | 39.26375 | 30.00581 | 31459 ft | 427 kts | 327° |
| 2026-05-06 01:38 | 39.28842 | 29.98428 | 30678 ft | 428 kts | 327° |
| 2026-05-06 01:38 | 39.31319 | 29.96265 | 29757 ft | 431 kts | 327° |
| 2026-05-06 01:39 | 39.33774 | 29.94119 | 28976 ft | 429 kts | 327° |
| 2026-05-06 01:39 | 39.36236 | 29.91967 | 28390 ft | 423 kts | 327° |
| 2026-05-06 01:39 | 39.38662 | 29.89846 | 27775 ft | 417 kts | 327° |
| 2026-05-06 01:39 | 39.41069 | 29.87739 | 27162 ft | 420 kts | 327° |
| 2026-05-06 01:40 | 39.43496 | 29.85611 | 26547 ft | 422 kts | 327° |
| 2026-05-06 01:40 | 39.45933 | 29.83473 | 25931 ft | 421 kts | 327° |
| 2026-05-06 01:40 | 39.48317 | 29.81380 | 25320 ft | 419 kts | 327° |
| 2026-05-06 01:40 | 39.50758 | 29.79236 | 24795 ft | 417 kts | 327° |
| 2026-05-06 01:41 | 39.53094 | 29.77183 | 24572 ft | 404 kts | 327° |
| 2026-05-06 01:41 | 39.55384 | 29.75169 | 24336 ft | 393 kts | 327° |
| 2026-05-06 01:41 | 39.57626 | 29.73209 | 24107 ft | 383 kts | 329° |
| 2026-05-06 01:41 | 39.60011 | 29.71732 | 23707 ft | 377 kts | 337° |
| 2026-05-06 01:42 | 39.62405 | 29.70391 | 23298 ft | 371 kts | 337° |
| 2026-05-06 01:42 | 39.64762 | 29.69061 | 22904 ft | 366 kts | 337° |
| 2026-05-06 01:42 | 39.67060 | 29.67764 | 22509 ft | 361 kts | 337° |
| 2026-05-06 01:42 | 39.69365 | 29.66461 | 22124 ft | 362 kts | 337° |
| 2026-05-06 01:43 | 39.71667 | 29.65160 | 21746 ft | 361 kts | 337° |
| 2026-05-06 01:43 | 39.73962 | 29.63861 | 21362 ft | 359 kts | 337° |
| 2026-05-06 01:43 | 39.76248 | 29.62567 | 20988 ft | 357 kts | 337° |
| 2026-05-06 01:43 | 39.78514 | 29.61282 | 20602 ft | 354 kts | 337° |
| 2026-05-06 01:44 | 39.80761 | 29.60008 | 20225 ft | 350 kts | 337° |
| 2026-05-06 01:44 | 39.82983 | 29.58748 | 19857 ft | 346 kts | 337° |
| 2026-05-06 01:44 | 39.85147 | 29.57518 | 19496 ft | 342 kts | 337° |
| 2026-05-06 01:44 | 39.87322 | 29.56283 | 19142 ft | 339 kts | 337° |
| 2026-05-06 01:45 | 39.89473 | 29.55060 | 18779 ft | 337 kts | 337° |
| 2026-05-06 01:45 | 39.91647 | 29.53955 | 18376 ft | 334 kts | 346° |
| 2026-05-06 01:45 | 39.93872 | 29.53204 | 17990 ft | 326 kts | 345° |
| 2026-05-06 01:45 | 39.96019 | 29.52434 | 17646 ft | 314 kts | 345° |
| 2026-05-06 01:46 | 39.98083 | 29.51679 | 17339 ft | 302 kts | 345° |
| 2026-05-06 01:46 | 40.00099 | 29.50932 | 17011 ft | 300 kts | 345° |
| 2026-05-06 01:46 | 40.02112 | 29.50179 | 16677 ft | 300 kts | 345° |
| 2026-05-06 01:46 | 40.04117 | 29.49425 | 16352 ft | 297 kts | 345° |
| 2026-05-06 01:47 | 40.06091 | 29.48682 | 16034 ft | 295 kts | 345° |
| 2026-05-06 01:47 | 40.08002 | 29.47730 | 15479 ft | 302 kts | 333° |
| 2026-05-06 01:47 | 40.09853 | 29.46456 | 15172 ft | 291 kts | 335° |
| 2026-05-06 01:47 | 40.11605 | 29.45283 | 14820 ft | 282 kts | 335° |
| 2026-05-06 01:48 | 40.13322 | 29.44138 | 14487 ft | 272 kts | 335° |
| 2026-05-06 01:48 | 40.14982 | 29.43036 | 14149 ft | 263 kts | 335° |
| 2026-05-06 01:48 | 40.16603 | 29.41959 | 13665 ft | 261 kts | 335° |
| 2026-05-06 01:48 | 40.18216 | 29.40888 | 13145 ft | 259 kts | 335° |
| 2026-05-06 01:49 | 40.19821 | 29.39822 | 12612 ft | 258 kts | 335° |
| 2026-05-06 01:49 | 40.21397 | 29.38776 | 12109 ft | 258 kts | 335° |
| 2026-05-06 01:49 | 40.23314 | 29.37502 | 11618 ft | 254 kts | 335° |
| 2026-05-06 01:49 | 40.24890 | 29.36455 | 11432 ft | 255 kts | 335° |
| 2026-05-06 01:50 | 40.26475 | 29.35401 | 11298 ft | 255 kts | 335° |
| 2026-05-06 01:50 | 40.28056 | 29.34349 | 11158 ft | 254 kts | 335° |
| 2026-05-06 01:50 | 40.29629 | 29.33302 | 11018 ft | 253 kts | 335° |
| 2026-05-06 01:50 | 40.31199 | 29.32257 | 10870 ft | 253 kts | 335° |
| 2026-05-06 01:51 | 40.32772 | 29.31207 | 10742 ft | 253 kts | 335° |
| 2026-05-06 01:51 | 40.34346 | 29.30158 | 10608 ft | 253 kts | 335° |
| 2026-05-06 01:51 | 40.35385 | 29.29465 | 10544 ft | 253 kts | 335° |
| 2026-05-06 01:51 | 40.37488 | 29.28062 | 10350 ft | 253 kts | 334° |
| 2026-05-06 01:52 | 40.38525 | 29.27370 | 10293 ft | 253 kts | 334° |
| 2026-05-06 01:52 | 40.40092 | 29.26322 | 10169 ft | 252 kts | 334° |
| 2026-05-06 01:52 | 40.41656 | 29.25276 | 9934 ft | 253 kts | 334° |
| 2026-05-06 01:52 | 40.43230 | 29.24224 | 9605 ft | 253 kts | 335° |
| 2026-05-06 01:53 | 40.44796 | 29.23175 | 9289 ft | 252 kts | 334° |
| 2026-05-06 01:53 | 40.46317 | 29.22157 | 9026 ft | 251 kts | 334° |
| 2026-05-06 01:53 | 40.47871 | 29.21116 | 8753 ft | 249 kts | 334° |
| 2026-05-06 01:53 | 40.49405 | 29.20088 | 8496 ft | 247 kts | 334° |
| 2026-05-06 01:54 | 40.50935 | 29.19062 | 8223 ft | 246 kts | 334° |
| 2026-05-06 01:54 | 40.52453 | 29.18043 | 7916 ft | 244 kts | 334° |
| 2026-05-06 01:54 | 40.53961 | 29.17032 | 7658 ft | 242 kts | 334° |
| 2026-05-06 01:54 | 40.55463 | 29.16023 | 7424 ft | 243 kts | 334° |
| 2026-05-06 01:55 | 40.56975 | 29.15008 | 7160 ft | 244 kts | 334° |
| 2026-05-06 01:55 | 40.58493 | 29.13987 | 6867 ft | 245 kts | 334° |
| 2026-05-06 01:55 | 40.60010 | 29.12967 | 6600 ft | 244 kts | 333° |
| 2026-05-06 01:55 | 40.61519 | 29.11951 | 6327 ft | 244 kts | 333° |
| 2026-05-06 01:56 | 40.63032 | 29.10932 | 6040 ft | 243 kts | 333° |
| 2026-05-06 01:56 | 40.64541 | 29.09916 | 5759 ft | 243 kts | 333° |
| 2026-05-06 01:56 | 40.66022 | 29.08918 | 5479 ft | 241 kts | 333° |
| 2026-05-06 01:56 | 40.67505 | 29.07918 | 5209 ft | 236 kts | 333° |
| 2026-05-06 01:57 | 40.68942 | 29.06949 | 4949 ft | 228 kts | 333° |
| 2026-05-06 01:57 | 40.70299 | 29.06033 | 4861 ft | 212 kts | 333° |
| 2026-05-06 01:57 | 40.71583 | 29.05166 | 4740 ft | 203 kts | 333° |
| 2026-05-06 01:57 | 40.72828 | 29.04324 | 4624 ft | 200 kts | 333° |
| 2026-05-06 01:58 | 40.74068 | 29.03487 | 4517 ft | 200 kts | 332° |
| 2026-05-06 01:58 | 40.75315 | 29.02697 | 4388 ft | 200 kts | 342° |
| 2026-05-06 01:58 | 40.76700 | 29.02625 | 4153 ft | 203 kts | 12° |
| 2026-05-06 01:58 | 40.77947 | 29.03478 | 3966 ft | 205 kts | 40° |
| 2026-05-06 01:59 | 40.78880 | 29.04846 | 3994 ft | 195 kts | 48° |
| 2026-05-06 01:59 | 40.79732 | 29.06208 | 4039 ft | 191 kts | 49° |
| 2026-05-06 01:59 | 40.80569 | 29.07571 | 4015 ft | 190 kts | 49° |
| 2026-05-06 01:59 | 40.81412 | 29.08918 | 4002 ft | 190 kts | 50° |
| 2026-05-06 02:00 | 40.82155 | 29.10332 | 3969 ft | 182 kts | 56° |
| 2026-05-06 02:00 | 40.82758 | 29.11740 | 3703 ft | 174 kts | 60° |
| 2026-05-06 02:00 | 40.83284 | 29.13104 | 3476 ft | 160 kts | 61° |
| 2026-05-06 02:00 | 40.83757 | 29.14376 | 3288 ft | 151 kts | 62° |
| 2026-05-06 02:01 | 40.84218 | 29.15621 | 3024 ft | 150 kts | 62° |
| 2026-05-06 02:01 | 40.84675 | 29.16858 | 2792 ft | 150 kts | 62° |
| 2026-05-06 02:01 | 40.85129 | 29.18091 | 2540 ft | 149 kts | 62° |
| 2026-05-06 02:01 | 40.85581 | 29.19318 | 2293 ft | 149 kts | 62° |
| 2026-05-06 02:02 | 40.86035 | 29.20552 | 2057 ft | 149 kts | 62° |
| 2026-05-06 02:02 | 40.86488 | 29.21780 | 1820 ft | 148 kts | 62° |
| 2026-05-06 02:02 | 40.86931 | 29.22985 | 1581 ft | 147 kts | 62° |
| 2026-05-06 02:02 | 40.87376 | 29.24195 | 1348 ft | 146 kts | 63° |
| 2026-05-06 02:03 | 40.87817 | 29.25392 | 1102 ft | 144 kts | 63° |
| 2026-05-06 02:03 | 40.88242 | 29.26553 | 878 ft | 141 kts | 65° |
| 2026-05-06 02:03 | 40.88667 | 29.27692 | 634 ft | 137 kts | 63° |
| 2026-05-06 02:03 | 40.89084 | 29.28830 | 425 ft | 137 kts | 63° |
| 2026-05-06 02:04 | 40.89488 | 29.29927 | 323 ft | 122 kts | 65° |
| 2026-05-06 02:04 | 40.89819 | 29.30820 | 324 ft | 92 kts | 64° |
| 2026-05-06 02:04 | 40.90044 | 29.31434 | 320 ft | 58 kts | 64° |
| 2026-05-06 02:04 | 40.90201 | 29.31859 | 323 ft | 51 kts | 63° |
| 2026-05-06 02:05 | 40.90343 | 29.32246 | 321 ft | 40 kts | 64° |
| 2026-05-06 02:05 | 40.90426 | 29.32454 | 321 ft | 14 kts | 44° |
| 2026-05-06 02:05 | 40.90500 | 29.32473 | 322 ft | 11 kts | 342° |
| 2026-05-06 02:05 | 40.90563 | 29.32435 | 323 ft | 10 kts | 334° |
| 2026-05-06 02:06 | 40.90602 | 29.32386 | 322 ft | 9 kts | 291° |
| 2026-05-06 02:06 | 40.90650 | 29.32318 | 323 ft | 11 kts | 335° |
| 2026-05-06 02:06 | 40.90726 | 29.32270 | 322 ft | 13 kts | 328° |
| 2026-05-06 02:06 | 40.90760 | 29.32212 | 322 ft | 8 kts | 315° |
| 2026-05-06 02:07 | 40.90805 | 29.32176 | 321 ft | 1 kts | 335° |
| 2026-05-06 02:07 | 40.90816 | 29.32169 | 322 ft | 2 kts | 334° |
| 2026-05-06 02:07 | 40.90821 | 29.32165 | 323 ft | 1 kts | 334° |